Time;durP1;ratioP1;P1;durP2;ratioP2;P2;SDS_P1;SDS_P2;PMS_P1;PMS_P2;Temp;Humidity;BMP_temperature;BMP_pressure;BME280_temperature;BME280_humidity;BME280_pressure;Samples;Min_cycle;Max_cycle;Signal;HPM_P1;HPM_P2
2022/05/20 00:01:30;;;;;;;3.40;2.47;;;;;;;;;;5029041;28;20111;-73
2022/05/20 00:03:55;;;;;;;2.60;2.30;;;;;;;;;;5027754;28;20040;-74
2022/05/20 00:06:20;;;;;;;3.38;2.20;;;;;;;;;;5026791;28;20024;-75
2022/05/20 00:08:46;;;;;;;3.55;2.22;;;;;;;;;;5026321;28;20029;-75
2022/05/20 00:11:11;;;;;;;3.40;2.60;;;;;;;;;;5027113;28;20032;-75
2022/05/20 00:13:36;;;;;;;4.28;2.25;;;;;;;;;;5026732;28;20432;-75
2022/05/20 00:16:02;;;;;;;4.50;2.10;;;;;;;;;;5027604;28;20056;-75
2022/05/20 00:18:27;;;;;;;2.70;2.50;;;;;;;;;;5026876;28;20149;-75
2022/05/20 00:20:53;;;;;;;2.72;2.25;;;;;;;;;;5025154;28;20399;-76
2022/05/20 00:23:19;;;;;;;3.70;2.42;;;;;;;;;;5027085;28;20033;-77
2022/05/20 00:25:47;;;;;;;3.47;2.83;;;;;;;;;;5025096;28;20088;-76
2022/05/20 00:28:21;;;;;;;5.07;3.08;;;;;;;;;;5026281;28;20052;-75
2022/05/20 00:30:48;;;;;;;4.10;3.30;;;;;;;;;;5026580;28;20399;-75
2022/05/20 00:33:14;;;;;;;3.47;3.00;;;;;;;;;;5027036;28;20099;-76
2022/05/20 00:35:40;;;;;;;4.30;3.08;;;;;;;;;;5025455;28;20422;-76
2022/05/20 00:38:05;;;;;;;5.38;3.42;;;;;;;;;;5026708;28;20029;-76
2022/05/20 00:40:31;;;;;;;3.40;2.72;;;;;;;;;;5026478;28;20116;-75
2022/05/20 00:43:22;;;;;;;3.40;3.08;;;;;;;;;;5026132;28;20571;-76
2022/05/20 00:45:47;;;;;;;3.20;2.70;;;;;;;;;;5026729;28;20365;-76
2022/05/20 00:48:12;;;;;;;5.60;2.90;;;;;;;;;;5026035;28;20028;-76
2022/05/20 00:50:42;;;;;;;6.40;2.60;;;;;;;;;;5026525;28;20025;-75
2022/05/20 00:53:08;;;;;;;4.05;2.40;;;;;;;;;;5025001;28;20030;-75
2022/05/20 00:55:34;;;;;;;3.78;2.70;;;;;;;;;;5025805;28;20029;-78
2022/05/20 00:58:05;;;;;;;3.40;2.95;;;;;;;;;;5026214;28;20040;-77
2022/05/20 01:00:32;;;;;;;3.53;2.97;;;;;;;;;;5026201;28;20025;-77
2022/05/20 01:03:03;;;;;;;4.72;3.22;;;;;;;;;;5025897;28;20040;-76
2022/05/20 01:05:37;;;;;;;4.07;2.75;;;;;;;;;;5025327;28;20107;-75
2022/05/20 01:08:04;;;;;;;7.00;2.70;;;;;;;;;;5026149;28;20029;-75
2022/05/20 01:10:29;;;;;;;4.20;2.80;;;;;;;;;;5026068;28;20029;-76
2022/05/20 01:12:57;;;;;;;4.35;3.00;;;;;;;;;;5025884;28;20052;-76
2022/05/20 01:15:22;;;;;;;4.88;2.90;;;;;;;;;;5026484;28;20466;-76
2022/05/20 01:17:53;;;;;;;3.42;2.78;;;;;;;;;;5025924;28;20052;-76
2022/05/20 01:20:22;;;;;;;4.80;3.20;;;;;;;;;;5025934;28;20056;-77
2022/05/20 01:22:54;;;;;;;3.85;3.20;;;;;;;;;;5026050;28;20056;-76
2022/05/20 01:25:21;;;;;;;4.85;3.40;;;;;;;;;;5026428;28;20080;-76
2022/05/20 01:27:47;;;;;;;5.53;3.13;;;;;;;;;;5026161;28;20198;-75
2022/05/20 01:30:16;;;;;;;6.82;3.60;;;;;;;;;;5025502;28;20087;-76
2022/05/20 01:32:41;;;;;;;4.15;3.45;;;;;;;;;;5026281;28;20032;-76
2022/05/20 01:35:11;;;;;;;4.32;3.58;;;;;;;;;;5025540;28;20108;-76
2022/05/20 01:37:36;;;;;;;9.25;4.47;;;;;;;;;;5026096;28;20045;-76
2022/05/20 01:40:03;;;;;;;6.30;3.40;;;;;;;;;;5026393;28;20471;-74
2022/05/20 01:42:39;;;;;;;6.72;3.70;;;;;;;;;;5025796;28;20416;-75
2022/05/20 01:45:11;;;;;;;6.53;3.72;;;;;;;;;;5024045;28;20120;-72
2022/05/20 01:47:43;;;;;;;5.47;3.30;;;;;;;;;;5028269;28;20065;-73
2022/05/20 01:50:16;;;;;;;3.83;3.00;;;;;;;;;;5030013;28;20017;-75
2022/05/20 01:53:05;;;;;;;3.60;3.03;;;;;;;;;;5031305;28;20021;-76
2022/05/20 01:55:35;;;;;;;9.65;3.80;;;;;;;;;;5019771;28;20041;-72
2022/05/20 01:58:03;;;;;;;19.20;6.13;;;;;;;;;;5029231;28;20040;-71
2022/05/20 02:00:32;;;;;;;6.90;3.78;;;;;;;;;;5029654;28;20479;-72
2022/05/20 02:03:26;;;;;;;9.18;4.80;;;;;;;;;;5029231;28;20033;-70
2022/05/20 02:06:03;;;;;;;7.18;3.75;;;;;;;;;;5027300;28;20091;-71
2022/05/20 02:08:51;;;;;;;5.20;4.07;;;;;;;;;;5029186;28;20499;-73
2022/05/20 02:11:37;;;;;;;7.00;4.25;;;;;;;;;;5028316;28;20103;-72
2022/05/20 02:14:12;;;;;;;7.75;4.13;;;;;;;;;;5029112;28;20036;-73
2022/05/20 02:16:42;;;;;;;8.65;4.28;;;;;;;;;;5029094;28;20029;-73
2022/05/20 02:19:15;;;;;;;8.50;4.43;;;;;;;;;;5028855;28;20366;-71
2022/05/20 02:21:45;;;;;;;7.60;4.88;;;;;;;;;;5028991;28;20456;-71
2022/05/20 02:24:17;;;;;;;8.23;4.93;;;;;;;;;;5029511;28;20021;-72
2022/05/20 02:26:45;;;;;;;6.75;4.05;;;;;;;;;;5027784;28;20036;-74
2022/05/20 02:29:18;;;;;;;6.60;4.72;;;;;;;;;;5029078;28;20488;-73
2022/05/20 02:31:49;;;;;;;6.82;4.50;;;;;;;;;;5028357;28;20079;-74
2022/05/20 02:34:14;;;;;;;11.82;5.32;;;;;;;;;;5028925;28;20029;-72
2022/05/20 02:36:40;;;;;;;7.38;4.75;;;;;;;;;;5028926;28;20420;-74
2022/05/20 02:39:14;;;;;;;6.47;5.07;;;;;;;;;;5028261;28;20434;-74
2022/05/20 02:41:40;;;;;;;5.47;4.75;;;;;;;;;;5028343;28;20024;-72
2022/05/20 02:44:05;;;;;;;6.65;4.47;;;;;;;;;;5028852;28;20388;-73
2022/05/20 02:46:31;;;;;;;7.05;4.50;;;;;;;;;;5028102;28;20041;-72
2022/05/20 02:48:56;;;;;;;6.65;4.32;;;;;;;;;;5028650;28;20030;-72
2022/05/20 02:51:21;;;;;;;6.37;3.53;;;;;;;;;;5028658;28;20030;-72
2022/05/20 02:53:47;;;;;;;5.13;3.70;;;;;;;;;;5028154;28;20037;-73
2022/05/20 02:56:12;;;;;;;7.15;3.30;;;;;;;;;;5028591;28;20120;-73
2022/05/20 03:04:12;;;;;;;11.10;4.88;;;;;;;;;;5028723;28;20084;-73
2022/05/20 03:06:46;;;;;;;6.75;5.35;;;;;;;;;;5028223;28;20111;-73
2022/05/20 03:09:13;;;;;;;6.13;5.28;;;;;;;;;;5027639;28;20041;-74
2022/05/20 03:11:40;;;;;;;7.55;4.88;;;;;;;;;;5027659;28;20209;-75
2022/05/20 03:14:08;;;;;;;6.75;4.90;;;;;;;;;;5028393;28;20454;-73
2022/05/20 03:16:34;;;;;;;8.43;5.15;;;;;;;;;;5028021;28;20296;-73
2022/05/20 03:18:59;;;;;;;7.90;5.25;;;;;;;;;;5027446;28;20056;-73
2022/05/20 03:21:24;;;;;;;9.40;5.55;;;;;;;;;;5028241;28;20022;-74
2022/05/20 03:23:50;;;;;;;5.90;5.30;;;;;;;;;;5027509;28;20475;-75
2022/05/20 03:26:16;;;;;;;7.97;5.03;;;;;;;;;;5027753;28;20087;-75
2022/05/20 03:28:45;;;;;;;8.63;5.28;;;;;;;;;;5027809;28;20304;-74
2022/05/20 03:31:12;;;;;;;7.05;5.57;;;;;;;;;;5027448;28;20022;-75
2022/05/20 03:33:38;;;;;;;8.95;5.72;;;;;;;;;;5027852;28;20036;-74
2022/05/20 03:36:05;;;;;;;6.18;4.53;;;;;;;;;;5027870;28;20646;-74
2022/05/20 03:38:30;;;;;;;6.88;5.05;;;;;;;;;;5027039;28;20037;-74
2022/05/20 03:40:56;;;;;;;5.63;4.45;;;;;;;;;;5027904;28;20025;-74
2022/05/20 03:43:22;;;;;;;6.30;5.53;;;;;;;;;;5027696;28;20405;-74
2022/05/20 03:45:47;;;;;;;9.00;5.78;;;;;;;;;;5027022;28;20113;-73
2022/05/20 03:48:13;;;;;;;5.78;5.18;;;;;;;;;;5027574;28;20039;-74
2022/05/20 03:50:39;;;;;;;7.50;5.50;;;;;;;;;;5026938;28;20018;-75
2022/05/20 03:53:04;;;;;;;8.52;4.97;;;;;;;;;;5026999;28;20021;-74
2022/05/20 03:55:29;;;;;;;6.18;4.95;;;;;;;;;;5027294;28;20024;-75
2022/05/20 03:57:55;;;;;;;5.30;4.78;;;;;;;;;;5026852;28;20029;-75
2022/05/20 04:00:20;;;;;;;6.13;4.93;;;;;;;;;;5027408;28;20439;-72
2022/05/20 04:02:45;;;;;;;5.90;4.65;;;;;;;;;;5026907;28;20048;-72
2022/05/20 04:05:11;;;;;;;6.18;4.72;;;;;;;;;;5026811;28;20480;-72
2022/05/20 04:07:38;;;;;;;7.40;5.28;;;;;;;;;;5027150;28;20025;-73
2022/05/20 04:10:05;;;;;;;7.32;5.03;;;;;;;;;;5026087;28;20037;-74
2022/05/20 04:12:33;;;;;;;6.47;5.00;;;;;;;;;;5026728;28;20036;-73
2022/05/20 04:14:59;;;;;;;7.78;4.75;;;;;;;;;;5027290;28;20052;-72
2022/05/20 04:17:25;;;;;;;7.95;4.45;;;;;;;;;;5026485;28;20395;-72
2022/05/20 04:19:51;;;;;;;5.63;4.43;;;;;;;;;;5026453;28;20025;-72
2022/05/20 04:22:18;;;;;;;5.60;4.97;;;;;;;;;;5026755;28;20025;-74
2022/05/20 04:24:44;;;;;;;5.78;4.25;;;;;;;;;;5026596;28;20029;-74
2022/05/20 04:27:09;;;;;;;7.80;4.38;;;;;;;;;;5026910;28;20030;-73
2022/05/20 04:29:35;;;;;;;6.32;4.03;;;;;;;;;;5026360;28;20032;-73
2022/05/20 04:32:00;;;;;;;4.22;3.80;;;;;;;;;;5026226;28;20029;-75
2022/05/20 04:34:26;;;;;;;4.93;4.03;;;;;;;;;;5026925;28;20508;-72
2022/05/20 04:36:52;;;;;;;9.05;4.80;;;;;;;;;;5026108;28;20115;-74
2022/05/20 04:39:17;;;;;;;6.30;4.15;;;;;;;;;;5026506;28;20063;-73
2022/05/20 04:47:20;;;;;;;6.38;4.00;;;;;;;;;;5026743;28;20079;-73
2022/05/20 04:49:46;;;;;;;4.55;3.70;;;;;;;;;;5026363;28;20298;-74
2022/05/20 04:52:11;;;;;;;4.57;3.65;;;;;;;;;;5026593;28;20225;-75
2022/05/20 04:54:55;;;;;;;6.43;4.20;;;;;;;;;;5025839;28;20441;-75
2022/05/20 04:57:30;;;;;;;5.38;3.58;;;;;;;;;;5025635;28;20037;-75
2022/05/20 05:00:10;;;;;;;5.88;3.80;;;;;;;;;;5010745;28;20049;-75
2022/05/20 05:02:35;;;;;;;5.55;3.60;;;;;;;;;;5019641;28;20031;-74
2022/05/20 05:05:01;;;;;;;7.10;4.07;;;;;;;;;;5025604;28;20499;-73
2022/05/20 05:07:27;;;;;;;5.55;3.80;;;;;;;;;;5025902;28;20041;-72
2022/05/20 05:09:53;;;;;;;6.45;4.03;;;;;;;;;;5010907;28;20029;-73
2022/05/20 05:12:19;;;;;;;6.95;4.80;;;;;;;;;;5011648;28;20467;-75
2022/05/20 05:14:47;;;;;;;3.92;3.60;;;;;;;;;;5005954;28;20032;-75
2022/05/20 05:17:15;;;;;;;7.00;4.00;;;;;;;;;;5006015;28;20038;-75
2022/05/20 05:19:41;;;;;;;7.72;4.57;;;;;;;;;;5006340;28;20033;-74
2022/05/20 05:22:08;;;;;;;6.15;4.20;;;;;;;;;;5005376;28;20590;-75
2022/05/20 05:24:36;;;;;;;6.03;4.05;;;;;;;;;;5005554;28;20033;-73
2022/05/20 05:27:01;;;;;;;6.65;4.20;;;;;;;;;;5006216;28;20026;-74
2022/05/20 05:29:27;;;;;;;6.18;3.67;;;;;;;;;;5005417;28;20442;-73
2022/05/20 05:31:52;;;;;;;4.53;3.42;;;;;;;;;;5005899;28;20026;-71
2022/05/20 05:34:18;;;;;;;3.85;3.30;;;;;;;;;;5006098;28;20037;-73
2022/05/20 05:36:43;;;;;;;7.15;3.72;;;;;;;;;;5005486;28;20034;-72
2022/05/20 05:39:08;;;;;;;5.43;3.60;;;;;;;;;;5005881;28;20061;-74
2022/05/20 05:41:34;;;;;;;3.88;3.58;;;;;;;;;;5005726;28;20026;-73
2022/05/20 05:44:02;;;;;;;5.30;3.72;;;;;;;;;;5005718;28;20022;-73
2022/05/20 05:46:28;;;;;;;5.85;3.90;;;;;;;;;;5005983;28;20029;-73
2022/05/20 05:48:53;;;;;;;5.38;3.85;;;;;;;;;;5005458;28;20510;-73
2022/05/20 05:51:18;;;;;;;4.95;3.60;;;;;;;;;;5004138;28;20022;-72
2022/05/20 05:53:44;;;;;;;5.95;3.80;;;;;;;;;;5006204;28;20121;-73
2022/05/20 05:56:09;;;;;;;5.38;3.83;;;;;;;;;;5005188;28;20091;-73
2022/05/20 05:58:35;;;;;;;6.15;4.35;;;;;;;;;;5005831;28;20088;-73
2022/05/20 06:01:01;;;;;;;6.35;4.22;;;;;;;;;;5005532;28;20029;-73
2022/05/20 06:03:26;;;;;;;4.20;3.80;;;;;;;;;;5005258;28;20021;-73
2022/05/20 06:05:52;;;;;;;6.97;3.88;;;;;;;;;;5005974;28;20045;-75
2022/05/20 06:08:17;;;;;;;5.22;3.88;;;;;;;;;;5003668;28;20150;-73
2022/05/20 06:10:43;;;;;;;5.05;3.75;;;;;;;;;;5005528;28;20029;-74
2022/05/20 06:13:09;;;;;;;4.90;3.92;;;;;;;;;;5012933;28;20108;-77
2022/05/20 06:15:36;;;;;;;5.15;3.90;;;;;;;;;;5006290;28;20711;-75
2022/05/20 06:18:01;;;;;;;6.35;3.58;;;;;;;;;;5012234;28;20124;-75
2022/05/20 06:20:27;;;;;;;3.80;3.30;;;;;;;;;;5013638;28;20112;-74
2022/05/20 06:22:53;;;;;;;3.90;3.50;;;;;;;;;;5013415;28;20049;-75
2022/05/20 06:25:18;;;;;;;8.40;3.65;;;;;;;;;;5010987;28;20029;-75
2022/05/20 06:27:45;;;;;;;4.85;3.67;;;;;;;;;;5021188;28;20132;-74
2022/05/20 06:30:14;;;;;;;3.90;3.22;;;;;;;;;;5020620;28;20057;-74
2022/05/20 06:32:40;;;;;;;6.22;3.70;;;;;;;;;;5023915;28;20169;-74
2022/05/20 06:40:47;;;;;;;7.80;3.50;;;;;;;;;;5024047;28;20433;-75
2022/05/20 06:43:14;;;;;;;7.90;3.45;;;;;;;;;;5017479;28;20068;-75
2022/05/20 06:45:40;;;;;;;5.40;3.35;;;;;;;;;;5026200;28;20029;-74
2022/05/20 06:48:06;;;;;;;6.88;3.70;;;;;;;;;;5020398;28;20446;-74
2022/05/20 06:50:31;;;;;;;6.22;3.90;;;;;;;;;;5014815;28;20022;-74
2022/05/20 06:52:56;;;;;;;5.57;3.50;;;;;;;;;;5027407;28;20446;-73
2022/05/20 06:55:22;;;;;;;4.80;3.28;;;;;;;;;;5025916;28;20029;-76
2022/05/20 06:57:47;;;;;;;5.75;3.15;;;;;;;;;;5026658;28;20056;-75
2022/05/20 07:00:13;;;;;;;5.40;3.40;;;;;;;;;;5010494;28;20068;-73
2022/05/20 07:02:39;;;;;;;7.38;3.22;;;;;;;;;;5017916;28;20518;-77
2022/05/20 07:05:06;;;;;;;3.83;3.10;;;;;;;;;;5016247;28;20031;-74
2022/05/20 07:07:32;;;;;;;5.15;3.08;;;;;;;;;;5006763;28;20508;-74
2022/05/20 07:09:57;;;;;;;4.05;3.35;;;;;;;;;;5007109;28;20034;-74
2022/05/20 07:12:23;;;;;;;4.10;3.17;;;;;;;;;;5007627;28;20033;-73
2022/05/20 07:14:48;;;;;;;8.63;3.45;;;;;;;;;;5014110;28;20108;-75
2022/05/20 07:17:18;;;;;;;4.43;2.95;;;;;;;;;;5009520;28;20040;-74
2022/05/20 07:19:43;;;;;;;3.75;3.10;;;;;;;;;;5016404;28;20037;-73
2022/05/20 07:22:09;;;;;;;4.55;3.08;;;;;;;;;;5014416;28;20026;-72
2022/05/20 07:24:36;;;;;;;4.85;2.90;;;;;;;;;;5007064;28;20034;-71
2022/05/20 07:27:01;;;;;;;4.30;3.25;;;;;;;;;;5022324;28;20511;-73
2022/05/20 07:29:26;;;;;;;6.13;4.10;;;;;;;;;;5026000;28;20033;-74
2022/05/20 07:31:52;;;;;;;6.07;3.88;;;;;;;;;;5018616;28;20520;-72
2022/05/20 07:34:17;;;;;;;4.10;3.17;;;;;;;;;;5008531;28;20996;-72
2022/05/20 07:36:42;;;;;;;4.65;2.92;;;;;;;;;;5020327;28;20475;-73
2022/05/20 07:39:08;;;;;;;4.50;2.92;;;;;;;;;;5008430;28;20721;-73
2022/05/20 07:41:35;;;;;;;3.35;3.00;;;;;;;;;;5006507;28;20017;-72
2022/05/20 07:44:01;;;;;;;4.53;3.10;;;;;;;;;;5006649;28;20033;-73
2022/05/20 07:46:26;;;;;;;3.90;3.50;;;;;;;;;;5009852;28;20332;-71
2022/05/20 07:48:51;;;;;;;4.03;3.55;;;;;;;;;;5023565;28;20044;-72
2022/05/20 07:51:21;;;;;;;5.43;3.67;;;;;;;;;;5015722;28;20025;-70
2022/05/20 07:53:53;;;;;;;3.78;3.15;;;;;;;;;;5006179;28;20061;-69
2022/05/20 07:56:29;;;;;;;3.35;3.05;;;;;;;;;;5004655;28;20492;-71
2022/05/20 07:59:11;;;;;;;3.30;2.70;;;;;;;;;;5011315;28;20120;-71
2022/05/20 08:01:40;;;;;;;4.63;2.63;;;;;;;;;;5014064;28;20518;-71
2022/05/20 08:06:55;;;;;;;5.43;3.40;;;;;;;;;;5006671;28;20103;-71
2022/05/20 08:09:20;;;;;;;4.30;2.53;;;;;;;;;;5017146;28;20018;-72
2022/05/20 08:11:45;;;;;;;3.20;2.75;;;;;;;;;;5014656;28;20024;-72
2022/05/20 08:14:11;;;;;;;3.58;3.03;;;;;;;;;;5007462;28;20470;-71
2022/05/20 08:16:36;;;;;;;5.23;3.00;;;;;;;;;;5017987;28;20670;-72
2022/05/20 08:19:01;;;;;;;5.63;3.10;;;;;;;;;;5025000;28;20263;-71
2022/05/20 08:21:27;;;;;;;4.75;3.05;;;;;;;;;;5010953;28;20030;-72
2022/05/20 08:23:52;;;;;;;5.28;3.03;;;;;;;;;;5005429;28;20442;-71
2022/05/20 08:26:18;;;;;;;4.15;2.78;;;;;;;;;;5009416;28;20021;-72
2022/05/20 08:28:45;;;;;;;4.68;3.00;;;;;;;;;;5015419;28;20021;-72
2022/05/20 08:31:11;;;;;;;3.40;2.63;;;;;;;;;;5005259;28;20050;-73
2022/05/20 08:33:37;;;;;;;7.63;2.67;;;;;;;;;;5013730;28;20487;-71
2022/05/20 08:36:03;;;;;;;4.75;2.70;;;;;;;;;;5015434;28;20032;-73
2022/05/20 08:38:29;;;;;;;3.85;2.80;;;;;;;;;;5010706;28;20164;-73
2022/05/20 08:40:54;;;;;;;3.28;2.70;;;;;;;;;;5013567;28;20108;-72
2022/05/20 08:43:24;;;;;;;4.35;2.70;;;;;;;;;;5025224;28;20051;-72
2022/05/20 08:45:50;;;;;;;6.20;2.85;;;;;;;;;;5006716;28;20038;-73
2022/05/20 08:48:16;;;;;;;4.77;2.80;;;;;;;;;;5017497;28;20560;-73
2022/05/20 08:50:50;;;;;;;4.40;2.80;;;;;;;;;;5015941;28;21020;-74
2022/05/20 08:53:25;;;;;;;5.00;3.00;;;;;;;;;;5010791;28;20036;-73
2022/05/20 08:55:50;;;;;;;3.42;2.65;;;;;;;;;;5014802;28;20025;-74
2022/05/20 08:58:19;;;;;;;3.90;2.83;;;;;;;;;;5008566;28;20116;-73
2022/05/20 09:00:45;;;;;;;6.90;2.80;;;;;;;;;;5023492;28;20013;-73
2022/05/20 09:03:12;;;;;;;4.72;3.05;;;;;;;;;;5005129;28;20373;-73
2022/05/20 09:05:40;;;;;;;3.83;2.83;;;;;;;;;;5023438;28;20785;-73
2022/05/20 09:08:19;;;;;;;4.63;2.70;;;;;;;;;;5016477;28;20101;-74
2022/05/20 09:10:54;;;;;;;3.58;3.00;;;;;;;;;;5010329;28;20022;-74
2022/05/20 09:13:20;;;;;;;3.97;3.28;;;;;;;;;;5023478;28;20021;-74
2022/05/20 09:15:58;;;;;;;3.93;3.30;;;;;;;;;;5021453;28;20483;-74
2022/05/20 09:18:39;;;;;;;5.40;3.10;;;;;;;;;;5019490;28;20081;-74
2022/05/20 09:21:06;;;;;;;4.88;3.08;;;;;;;;;;5016534;28;20013;-74
2022/05/20 09:23:46;;;;;;;5.07;3.30;;;;;;;;;;5011273;28;20072;-72
2022/05/20 09:26:12;;;;;;;7.40;3.53;;;;;;;;;;5019603;28;20037;-73
2022/05/20 09:28:46;;;;;;;5.03;3.50;;;;;;;;;;5005165;28;20326;-74
2022/05/20 09:31:16;;;;;;;7.45;3.58;;;;;;;;;;5016493;28;20546;-73
2022/05/20 09:34:08;;;;;;;5.70;3.40;;;;;;;;;;5024601;28;20040;-75
2022/05/20 09:36:55;;;;;;;7.03;3.80;;;;;;;;;;5014586;28;20041;-73
2022/05/20 09:39:27;;;;;;;7.68;4.15;;;;;;;;;;5010685;28;20029;-73
2022/05/20 09:41:55;;;;;;;8.88;4.18;;;;;;;;;;5011857;28;20587;-73
2022/05/20 09:44:25;;;;;;;5.75;3.83;;;;;;;;;;5020467;28;20543;-72
2022/05/20 09:46:51;;;;;;;6.28;3.90;;;;;;;;;;5017205;28;20128;-73
2022/05/20 09:49:31;;;;;;;3.85;3.45;;;;;;;;;;5013936;28;20050;-72
2022/05/20 09:51:59;;;;;;;6.18;3.50;;;;;;;;;;5023033;28;20612;-74
2022/05/20 09:54:32;;;;;;;8.23;4.10;;;;;;;;;;5018968;28;20041;-76
2022/05/20 09:57:19;;;;;;;11.35;4.32;;;;;;;;;;5013275;28;20034;-73
2022/05/20 10:00:10;;;;;;;7.63;4.10;;;;;;;;;;5022820;28;20017;-74
2022/05/20 10:02:44;;;;;;;6.60;3.90;;;;;;;;;;5014261;28;20029;-73
2022/05/20 10:05:26;;;;;;;6.72;3.97;;;;;;;;;;5022906;28;20032;-74
2022/05/20 10:08:23;;;;;;;6.32;4.20;;;;;;;;;;5013675;28;20034;-72
2022/05/20 10:10:55;;;;;;;8.40;4.15;;;;;;;;;;5012929;28;20117;-73
2022/05/20 10:13:35;;;;;;;7.28;4.18;;;;;;;;;;5016753;28;20095;-72
2022/05/20 10:16:09;;;;;;;6.05;3.40;;;;;;;;;;5010034;28;20037;-75
2022/05/20 10:18:50;;;;;;;6.38;3.63;;;;;;;;;;5018611;28;20396;-75
2022/05/20 10:21:44;;;;;;;5.53;4.25;;;;;;;;;;5018446;28;20088;-75
2022/05/20 10:24:33;;;;;;;7.07;3.72;;;;;;;;;;5028929;28;20033;-74
2022/05/20 10:27:04;;;;;;;6.38;3.67;;;;;;;;;;5005235;28;20029;-73
2022/05/20 10:32:34;;;;;;;5.25;3.45;;;;;;;;;;5016916;28;20039;-75
2022/05/20 10:35:02;;;;;;;12.82;4.07;;;;;;;;;;5016722;28;20022;-74
2022/05/20 10:38:04;;;;;;;6.63;4.00;;;;;;;;;;5021019;28;20448;-74
2022/05/20 10:40:36;;;;;;;5.43;3.83;;;;;;;;;;5016270;28;20034;-74
2022/05/20 10:43:25;;;;;;;7.03;4.55;;;;;;;;;;5008089;28;20362;-73
2022/05/20 10:49:06;;;;;;;7.55;4.28;;;;;;;;;;5008829;28;20048;-74
2022/05/20 10:51:55;;;;;;;5.88;4.10;;;;;;;;;;5022908;28;20420;-74
2022/05/20 10:54:27;;;;;;;6.18;4.72;;;;;;;;;;5025555;28;20104;-72
2022/05/20 10:57:01;;;;;;;8.07;4.50;;;;;;;;;;5019115;28;20079;-73
2022/05/20 11:00:03;;;;;;;9.25;4.30;;;;;;;;;;5011111;28;20519;-74
2022/05/20 11:02:44;;;;;;;6.68;4.25;;;;;;;;;;5016243;28;20029;-75
2022/05/20 11:05:22;;;;;;;8.20;4.57;;;;;;;;;;5021400;28;20045;-76
2022/05/20 11:08:06;;;;;;;8.10;4.85;;;;;;;;;;5014770;28;20543;-75
2022/05/20 11:11:09;;;;;;;9.82;5.53;;;;;;;;;;5006388;28;20030;-74
2022/05/20 11:13:40;;;;;;;5.82;5.00;;;;;;;;;;5007979;28;20072;-74
2022/05/20 11:16:32;;;;;;;6.50;5.38;;;;;;;;;;5016046;28;20034;-76
2022/05/20 11:19:07;;;;;;;12.82;5.50;;;;;;;;;;5014809;28;20045;-76
2022/05/20 11:21:58;;;;;;;10.15;5.35;;;;;;;;;;5015639;28;20084;-77
2022/05/20 11:24:26;;;;;;;11.18;5.65;;;;;;;;;;5016291;28;20078;-76
2022/05/20 11:27:23;;;;;;;9.27;5.10;;;;;;;;;;5015678;28;20033;-75
2022/05/20 11:30:00;;;;;;;8.90;6.15;;;;;;;;;;5004034;28;20407;-76
2022/05/20 11:32:43;;;;;;;10.02;5.22;;;;;;;;;;5026361;28;20026;-74
2022/05/20 11:35:36;;;;;;;11.27;4.93;;;;;;;;;;5026824;28;20059;-75
2022/05/20 11:38:22;;;;;;;10.75;5.50;;;;;;;;;;5026329;28;20426;-74
2022/05/20 11:41:26;;;;;;;10.27;5.63;;;;;;;;;;5009414;28;20045;-75
2022/05/20 11:44:07;;;;;;;6.60;5.15;;;;;;;;;;4989744;28;20073;-74
2022/05/20 11:47:14;;;;;;;9.00;4.78;;;;;;;;;;5015823;28;20490;-74
2022/05/20 11:49:44;;;;;;;5.95;4.85;;;;;;;;;;4994841;28;20367;-75
2022/05/20 11:52:25;;;;;;;6.82;5.22;;;;;;;;;;5006313;28;20021;-76
2022/05/20 11:55:20;;;;;;;8.90;4.93;;;;;;;;;;5013409;28;20037;-76
2022/05/20 11:58:01;;;;;;;6.57;4.57;;;;;;;;;;5020700;28;20697;-75
2022/05/20 12:00:27;;;;;;;9.75;5.00;;;;;;;;;;5018271;28;20096;-76
2022/05/20 12:03:03;;;;;;;6.68;4.75;;;;;;;;;;5019618;28;20160;-78
2022/05/20 12:05:32;;;;;;;7.57;5.07;;;;;;;;;;5011127;28;20064;-77
2022/05/20 12:07:57;;;;;;;7.25;4.70;;;;;;;;;;5019033;28;20022;-76
2022/05/20 12:10:35;;;;;;;10.70;5.00;;;;;;;;;;5011838;28;20488;-77
2022/05/20 12:13:11;;;;;;;6.25;5.45;;;;;;;;;;5016554;28;20033;-76
2022/05/20 12:16:11;;;;;;;9.02;5.65;;;;;;;;;;5007568;28;20180;-74
2022/05/20 12:24:41;;;;;;;11.25;7.82;;;;;;;;;;5010061;28;20475;-73
2022/05/20 12:27:31;;;;;;;12.88;8.07;;;;;;;;;;5008937;28;20034;-72
2022/05/20 12:30:18;;;;;;;12.77;6.95;;;;;;;;;;5004843;28;20099;-72
2022/05/20 12:32:46;;;;;;;13.02;6.90;;;;;;;;;;5006744;28;20037;-72
2022/05/20 12:35:19;;;;;;;10.43;6.75;;;;;;;;;;5012525;28;20029;-70
2022/05/20 12:37:44;;;;;;;12.02;7.10;;;;;;;;;;5022460;28;20345;-70
2022/05/20 12:40:39;;;;;;;13.20;7.47;;;;;;;;;;5016364;28;20688;-70
2022/05/20 12:43:04;;;;;;;10.43;6.68;;;;;;;;;;5019144;28;20357;-70
2022/05/20 12:45:53;;;;;;;12.67;6.70;;;;;;;;;;5007794;28;20466;-72
2022/05/20 12:48:24;;;;;;;10.05;5.75;;;;;;;;;;5021405;28;20255;-71
2022/05/20 12:51:00;;;;;;;9.65;6.05;;;;;;;;;;5005681;28;20133;-72
2022/05/20 12:53:29;;;;;;;8.73;5.55;;;;;;;;;;5009458;28;20030;-71
2022/05/20 12:55:56;;;;;;;11.10;6.28;;;;;;;;;;5014602;28;20033;-70
2022/05/20 12:58:25;;;;;;;8.30;5.90;;;;;;;;;;5010796;28;20018;-71
2022/05/20 13:00:53;;;;;;;6.70;5.53;;;;;;;;;;5014610;28;20022;-71
2022/05/20 13:03:35;;;;;;;8.95;5.45;;;;;;;;;;5024418;28;20029;-71
2022/05/20 13:06:23;;;;;;;8.38;5.82;;;;;;;;;;5025124;28;20120;-71
2022/05/20 13:08:51;;;;;;;9.13;5.55;;;;;;;;;;5027320;28;20025;-72
2022/05/20 13:11:19;;;;;;;7.85;5.80;;;;;;;;;;5025797;28;20504;-71
2022/05/20 13:13:49;;;;;;;7.70;5.85;;;;;;;;;;5014360;28;20025;-72
2022/05/20 13:16:15;;;;;;;9.00;6.03;;;;;;;;;;5026390;28;20335;-73
2022/05/20 13:18:44;;;;;;;11.98;6.25;;;;;;;;;;5008478;28;20076;-72
2022/05/20 13:21:16;;;;;;;10.02;5.93;;;;;;;;;;5008685;28;20175;-73
2022/05/20 13:23:43;;;;;;;9.70;6.10;;;;;;;;;;5025397;28;20391;-73
2022/05/20 13:26:19;;;;;;;8.73;6.05;;;;;;;;;;5010630;28;20033;-72
2022/05/20 13:28:45;;;;;;;9.98;6.25;;;;;;;;;;5008629;28;20029;-71
2022/05/20 13:31:13;;;;;;;9.32;6.65;;;;;;;;;;5008583;28;20025;-71
2022/05/20 13:33:41;;;;;;;11.57;6.22;;;;;;;;;;5008627;28;20028;-71
2022/05/20 13:36:17;;;;;;;7.30;5.57;;;;;;;;;;5008521;28;20479;-71
2022/05/20 13:38:45;;;;;;;8.85;6.15;;;;;;;;;;5009227;28;20057;-71
2022/05/20 13:41:10;;;;;;;10.38;5.90;;;;;;;;;;5026605;28;20017;-70
2022/05/20 13:43:39;;;;;;;12.70;5.75;;;;;;;;;;5010934;28;20468;-71
2022/05/20 13:49:14;;;;;;;7.07;6.28;;;;;;;;;;5012314;28;20354;-72
2022/05/20 13:51:49;;;;;;;10.80;7.00;;;;;;;;;;5012243;28;20026;-72
2022/05/20 13:54:27;;;;;;;9.82;6.20;;;;;;;;;;5012210;28;20033;-73
2022/05/20 13:56:53;;;;;;;8.07;5.40;;;;;;;;;;5011955;28;20030;-73
2022/05/20 13:59:30;;;;;;;7.05;4.82;;;;;;;;;;5025087;28;20056;-72
2022/05/20 14:02:01;;;;;;;11.75;5.72;;;;;;;;;;5031791;28;20029;-72
2022/05/20 14:04:45;;;;;;;7.60;4.50;;;;;;;;;;5031696;28;20362;-73
2022/05/20 14:07:35;;;;;;;6.47;4.03;;;;;;;;;;5031546;28;20029;-75
2022/05/20 14:10:06;;;;;;;6.40;3.83;;;;;;;;;;5025598;28;20479;-76
2022/05/20 14:12:33;;;;;;;9.32;3.83;;;;;;;;;;5031677;28;20578;-73
2022/05/20 14:15:09;;;;;;;7.97;3.97;;;;;;;;;;5031213;28;20564;-75
2022/05/20 14:17:34;;;;;;;6.60;3.50;;;;;;;;;;5011919;28;20049;-75
2022/05/20 14:20:08;;;;;;;5.10;3.30;;;;;;;;;;5011508;28;20021;-77
2022/05/20 14:22:35;;;;;;;6.18;3.50;;;;;;;;;;5012691;28;20419;-72
2022/05/20 14:25:14;;;;;;;6.82;3.38;;;;;;;;;;5012303;28;20107;-74
2022/05/20 14:27:42;;;;;;;9.02;4.00;;;;;;;;;;5011115;28;20029;-76
2022/05/20 14:30:20;;;;;;;6.43;3.67;;;;;;;;;;5011426;28;20034;-76
2022/05/20 14:32:50;;;;;;;5.85;3.60;;;;;;;;;;5011162;28;20119;-74
2022/05/20 14:35:19;;;;;;;6.95;3.25;;;;;;;;;;5011008;28;20476;-76
2022/05/20 14:37:45;;;;;;;6.05;3.22;;;;;;;;;;5011416;28;20145;-74
2022/05/20 14:40:14;;;;;;;8.38;3.90;;;;;;;;;;5011775;28;20476;-77
2022/05/20 14:42:45;;;;;;;9.18;3.72;;;;;;;;;;5011422;28;20155;-72
2022/05/20 14:45:30;;;;;;;7.15;3.65;;;;;;;;;;5011048;28;20040;-73
2022/05/20 14:48:00;;;;;;;6.78;3.08;;;;;;;;;;5011206;28;20091;-72
2022/05/20 14:50:27;;;;;;;5.30;3.30;;;;;;;;;;5011698;28;20030;-74
2022/05/20 14:53:23;;;;;;;9.07;3.42;;;;;;;;;;5011446;28;20048;-74
2022/05/20 14:56:01;;;;;;;10.20;3.65;;;;;;;;;;5008561;28;20506;-73
2022/05/20 14:58:32;;;;;;;5.78;3.28;;;;;;;;;;5017601;28;20071;-72
2022/05/20 15:01:11;;;;;;;7.38;3.17;;;;;;;;;;5015656;28;20018;-76
2022/05/20 15:03:43;;;;;;;4.78;3.10;;;;;;;;;;5011216;28;20336;-72
2022/05/20 15:06:20;;;;;;;;;;;;;;;;;;5012244;28;20365;-76
2022/05/20 15:08:47;;;;;;;9.00;3.63;;;;;;;;;;5010729;28;19976;-75
2022/05/20 15:11:19;;;;;;;6.13;3.50;;;;;;;;;;5011051;28;20112;-74
2022/05/20 15:13:45;;;;;;;8.93;3.38;;;;;;;;;;5010766;28;20032;-73
2022/05/20 15:16:11;;;;;;;6.55;3.17;;;;;;;;;;5009209;28;20117;-74
2022/05/20 15:18:37;;;;;;;8.63;3.80;;;;;;;;;;5010670;28;20559;-74
2022/05/20 15:21:09;;;;;;;7.03;3.40;;;;;;;;;;5011027;28;20380;-75
2022/05/20 15:23:45;;;;;;;6.88;2.70;;;;;;;;;;5011008;28;20045;-74
2022/05/20 15:26:15;;;;;;;8.63;2.97;;;;;;;;;;5010824;28;20029;-73
2022/05/20 15:28:51;;;;;;;6.97;3.03;;;;;;;;;;5009308;28;20109;-75
2022/05/20 15:36:58;;;;;;;11.95;6.97;;;;;;;;;;5011181;28;20079;-73
2022/05/20 15:39:31;;;;;;;8.13;5.57;;;;;;;;;;5011848;28;20057;-73
2022/05/20 15:41:57;;;;;;;5.32;2.90;;;;;;;;;;5010429;28;20286;-72
2022/05/20 15:44:24;;;;;;;6.00;3.38;;;;;;;;;;5010293;28;20030;-72
2022/05/20 15:46:49;;;;;;;5.10;3.50;;;;;;;;;;5010090;28;20022;-71